Time;durP1;ratioP1;P1;durP2;ratioP2;P2;SDS_P1;SDS_P2;PMS_P1;PMS_P2;Temp;Humidity;BMP_temperature;BMP_pressure;BME280_temperature;BME280_humidity;BME280_pressure;Samples;Min_cycle;Max_cycle;Signal;HPM_P1;HPM_P2
2024/01/20 00:01:44;;;;;;;13.40;7.85;;;0.80;99.90;;;;;;5118998;27;20493;-65
2024/01/20 00:04:09;;;;;;;13.88;8.23;;;0.90;99.90;;;;;;5082517;28;20083;-65
2024/01/20 00:06:35;;;;;;;13.27;8.57;;;0.90;99.90;;;;;;5085928;28;20040;-65
2024/01/20 00:09:00;;;;;;;14.80;8.65;;;0.80;99.90;;;;;;5082719;28;20040;-65
2024/01/20 00:11:26;;;;;;;14.75;9.70;;;0.90;99.90;;;;;;5086009;28;20552;-65
2024/01/20 00:13:52;;;;;;;12.07;8.00;;;0.80;99.90;;;;;;5119690;27;20051;-65
2024/01/20 00:16:18;;;;;;;15.80;9.55;;;1.00;99.90;;;;;;5085844;28;20036;-65
2024/01/20 00:18:43;;;;;;;13.32;8.93;;;1.00;99.90;;;;;;5084188;28;21009;-65
2024/01/20 00:21:09;;;;;;;13.93;9.20;;;0.90;99.90;;;;;;5083908;28;20044;-65
2024/01/20 00:23:37;;;;;;;16.50;9.70;;;0.90;99.90;;;;;;5086647;28;20045;-65
2024/01/20 00:26:03;;;;;;;15.45;9.50;;;0.90;99.90;;;;;;5086689;28;20056;-65
2024/01/20 00:28:28;;;;;;;12.90;8.15;;;1.00;99.90;;;;;;5084211;28;20173;-65
2024/01/20 00:30:54;;;;;;;15.13;9.90;;;0.90;99.90;;;;;;5083172;28;20068;-66
2024/01/20 00:33:19;;;;;;;10.38;9.20;;;0.90;99.90;;;;;;5117095;27;20052;-65
2024/01/20 00:35:45;;;;;;;16.55;10.10;;;0.90;99.90;;;;;;5086777;28;20386;-65
2024/01/20 00:38:11;;;;;;;18.02;10.25;;;0.90;99.90;;;;;;5085377;28;20072;-65
2024/01/20 00:40:36;;;;;;;17.65;9.88;;;0.90;99.90;;;;;;5082299;28;20059;-66
2024/01/20 00:43:02;;;;;;;14.80;9.95;;;0.80;99.90;;;;;;5115827;27;20052;-65
2024/01/20 00:45:28;;;;;;;14.57;10.23;;;0.80;99.90;;;;;;5082853;28;20038;-65
2024/01/20 00:47:53;;;;;;;18.67;9.57;;;0.80;99.90;;;;;;5085666;28;20032;-65
2024/01/20 00:50:19;;;;;;;15.50;10.60;;;0.80;99.90;;;;;;5087278;28;20055;-65
2024/01/20 00:52:44;;;;;;;15.02;10.57;;;0.90;99.90;;;;;;5083367;28;20090;-65
2024/01/20 00:55:10;;;;;;;14.40;10.18;;;0.70;99.90;;;;;;5084733;28;20048;-65
2024/01/20 00:57:36;;;;;;;15.38;11.10;;;0.70;99.90;;;;;;5086500;28;20048;-65
2024/01/20 01:00:08;;;;;;;15.85;9.75;;;0.70;99.90;;;;;;5085056;28;20046;-65
2024/01/20 01:02:33;;;;;;;13.00;10.93;;;0.70;99.90;;;;;;5087008;28;20039;-65
2024/01/20 01:04:59;;;;;;;14.32;10.68;;;0.60;99.90;;;;;;5082272;28;20040;-65
2024/01/20 01:07:24;;;;;;;16.88;11.63;;;0.70;99.90;;;;;;5071881;28;20462;-65
2024/01/20 01:09:50;;;;;;;16.15;10.95;;;0.60;99.90;;;;;;5087688;28;20044;-65
2024/01/20 01:12:16;;;;;;;18.52;11.38;;;0.60;99.90;;;;;;5087538;28;20037;-65
2024/01/20 01:14:42;;;;;;;12.75;11.25;;;0.60;99.90;;;;;;5089370;28;20047;-65
2024/01/20 01:17:07;;;;;;;16.15;11.70;;;0.50;99.90;;;;;;5089411;28;20389;-65
2024/01/20 01:19:33;;;;;;;17.45;12.65;;;0.50;99.90;;;;;;5088504;28;20104;-65
2024/01/20 01:21:59;;;;;;;14.00;10.98;;;0.50;99.90;;;;;;5089885;28;20051;-65
2024/01/20 01:24:24;;;;;;;18.05;11.02;;;0.50;99.90;;;;;;5092869;28;20071;-65
2024/01/20 01:26:50;;;;;;;15.90;12.65;;;0.50;99.90;;;;;;5087511;28;20039;-65
2024/01/20 01:29:21;;;;;;;15.98;12.15;;;0.50;99.90;;;;;;5090595;28;20067;-65
2024/01/20 01:31:47;;;;;;;15.98;11.52;;;0.50;99.90;;;;;;5090517;28;20028;-65
2024/01/20 01:34:12;;;;;;;21.63;12.00;;;0.50;99.90;;;;;;5088158;28;20085;-65
2024/01/20 01:36:38;;;;;;;16.45;11.90;;;0.40;99.90;;;;;;5086011;28;20035;-65
2024/01/20 01:39:04;;;;;;;17.88;11.73;;;0.40;99.90;;;;;;5088049;28;20100;-65
2024/01/20 01:41:29;;;;;;;15.90;12.07;;;0.40;99.90;;;;;;5086472;28;20045;-65
2024/01/20 01:43:55;;;;;;;21.35;13.02;;;0.40;99.90;;;;;;5085004;28;20032;-65
2024/01/20 01:46:21;;;;;;;20.05;14.02;;;0.30;99.90;;;;;;5089882;28;20118;-65
2024/01/20 01:48:47;;;;;;;17.13;12.70;;;0.40;99.90;;;;;;5090530;28;20047;-65
2024/01/20 01:51:12;;;;;;;18.17;13.60;;;0.30;99.90;;;;;;5085030;28;20036;-65
2024/01/20 01:53:40;;;;;;;17.27;12.52;;;0.40;99.90;;;;;;5086653;28;20051;-65
2024/01/20 01:56:07;;;;;;;18.35;14.23;;;0.30;99.90;;;;;;5086369;28;20048;-65
2024/01/20 01:58:33;;;;;;;18.63;13.73;;;0.30;99.90;;;;;;5086571;28;20156;-65
2024/01/20 02:00:59;;;;;;;17.55;13.77;;;0.30;99.90;;;;;;5088581;28;20119;-65
2024/01/20 02:03:25;;;;;;;21.58;14.00;;;0.30;99.90;;;;;;5084937;28;20051;-65
2024/01/20 02:05:51;;;;;;;18.55;14.02;;;0.30;99.90;;;;;;5088260;28;20409;-65
2024/01/20 02:08:17;;;;;;;20.52;15.05;;;0.30;99.90;;;;;;5122582;27;20155;-65
2024/01/20 02:10:43;;;;;;;22.13;15.30;;;0.20;99.90;;;;;;5086661;28;20128;-65
2024/01/20 02:13:10;;;;;;;26.60;15.23;;;0.30;99.90;;;;;;5090647;28;20039;-65
2024/01/20 02:15:36;;;;;;;22.40;15.45;;;0.30;99.90;;;;;;5091095;28;20040;-65
2024/01/20 02:18:02;;;;;;;22.65;15.88;;;0.30;99.90;;;;;;5120748;27;20040;-65
2024/01/20 02:20:28;;;;;;;23.35;15.57;;;0.30;99.90;;;;;;5092224;28;20044;-66
2024/01/20 02:22:53;;;;;;;23.00;15.45;;;0.30;99.90;;;;;;5084556;28;20042;-65
2024/01/20 02:25:19;;;;;;;22.58;16.00;;;0.30;99.90;;;;;;5091907;28;20044;-65
2024/01/20 02:27:45;;;;;;;22.10;15.68;;;0.30;99.90;;;;;;5086685;28;20100;-65
2024/01/20 02:30:11;;;;;;;24.00;16.83;;;0.30;99.90;;;;;;5086364;28;20032;-65
2024/01/20 02:32:36;;;;;;;21.75;16.40;;;0.30;99.90;;;;;;5090642;28;20109;-65
2024/01/20 02:35:03;;;;;;;24.45;17.60;;;0.30;99.90;;;;;;5085725;28;20494;-65
2024/01/20 02:37:28;;;;;;;26.50;16.80;;;0.30;99.90;;;;;;5121867;27;20040;-65
2024/01/20 02:39:55;;;;;;;22.50;16.88;;;0.30;99.90;;;;;;5087704;28;20055;-65
2024/01/20 02:42:21;;;;;;;23.67;17.23;;;0.30;99.90;;;;;;5088097;28;20035;-65
2024/01/20 02:44:46;;;;;;;21.27;17.80;;;0.30;99.90;;;;;;5083933;28;20390;-65
2024/01/20 02:47:12;;;;;;;23.63;17.38;;;0.30;99.90;;;;;;5086550;28;20039;-65
2024/01/20 02:49:37;;;;;;;21.88;17.27;;;0.30;99.90;;;;;;5087765;28;20032;-65
2024/01/20 02:52:03;;;;;;;24.95;18.58;;;0.30;99.90;;;;;;5086196;28;20044;-65
2024/01/20 02:54:29;;;;;;;27.45;18.65;;;0.30;99.90;;;;;;5083718;28;20032;-65
2024/01/20 02:56:54;;;;;;;23.83;16.55;;;0.30;99.90;;;;;;5089683;28;20043;-65
2024/01/20 02:59:20;;;;;;;25.15;17.80;;;0.30;99.90;;;;;;5116432;27;20051;-65
2024/01/20 03:01:46;;;;;;;24.02;18.05;;;0.30;99.90;;;;;;5086693;28;20362;-65
2024/01/20 03:04:13;;;;;;;25.02;17.58;;;0.30;99.90;;;;;;5087989;28;20075;-65
2024/01/20 03:06:39;;;;;;;25.85;18.10;;;0.40;99.90;;;;;;5085515;28;20090;-65
2024/01/20 03:09:05;;;;;;;26.13;18.17;;;0.30;99.90;;;;;;5084536;28;20079;-65
2024/01/20 03:11:31;;;;;;;23.63;17.85;;;0.30;99.90;;;;;;5117336;27;20478;-65
2024/01/20 03:13:57;;;;;;;28.17;18.77;;;0.30;99.90;;;;;;5086653;28;20059;-65
2024/01/20 03:16:23;;;;;;;22.90;16.73;;;0.30;99.90;;;;;;5089871;28;20051;-65
2024/01/20 03:18:48;;;;;;;21.63;16.35;;;0.20;99.90;;;;;;5089636;28;20482;-65
2024/01/20 03:21:14;;;;;;;24.63;18.48;;;0.30;99.90;;;;;;5085870;28;20032;-65
2024/01/20 03:23:41;;;;;;;23.08;16.63;;;0.30;99.90;;;;;;5088008;28;20045;-65
2024/01/20 03:26:09;;;;;;;22.17;17.80;;;0.20;99.90;;;;;;5087284;28;20041;-65
2024/01/20 03:28:34;;;;;;;23.20;18.38;;;0.30;99.90;;;;;;5082124;28;20055;-65
2024/01/20 03:31:01;;;;;;;26.40;18.33;;;0.20;99.90;;;;;;5085030;28;20040;-65
2024/01/20 03:33:26;;;;;;;24.50;17.23;;;0.20;99.90;;;;;;5086399;28;20044;-65
2024/01/20 03:35:52;;;;;;;23.90;18.45;;;0.20;99.90;;;;;;5087533;28;20039;-65
2024/01/20 03:38:18;;;;;;;22.02;18.20;;;0.20;99.90;;;;;;5085196;28;20032;-65
2024/01/20 03:40:44;;;;;;;25.55;19.35;;;0.20;99.90;;;;;;5116011;27;20097;-65
2024/01/20 03:43:10;;;;;;;26.25;18.27;;;0.20;99.90;;;;;;5088441;28;20052;-65
2024/01/20 03:45:39;;;;;;;27.98;18.50;;;0.20;99.90;;;;;;5087927;28;20067;-65
2024/01/20 03:48:05;;;;;;;29.25;18.92;;;0.10;99.90;;;;;;5085419;28;20048;-65
2024/01/20 03:50:30;;;;;;;27.27;19.85;;;0.10;99.90;;;;;;5082808;28;20036;-65
2024/01/20 03:52:56;;;;;;;23.30;17.55;;;0.10;99.90;;;;;;5083871;28;20505;-65
2024/01/20 03:55:21;;;;;;;25.95;18.33;;;0.10;99.90;;;;;;5083929;28;20048;-65
2024/01/20 03:57:47;;;;;;;26.67;17.35;;;0.10;99.90;;;;;;5116927;27;20098;-65
2024/01/20 04:00:13;;;;;;;25.77;17.75;;;0.10;99.90;;;;;;5087757;28;20043;-65
2024/01/20 04:02:38;;;;;;;26.00;18.88;;;0.10;99.90;;;;;;5118205;27;20499;-65
2024/01/20 04:05:05;;;;;;;26.58;18.88;;;0.20;99.90;;;;;;5089911;28;20352;-65
2024/01/20 04:07:30;;;;;;;25.55;18.73;;;0.20;99.90;;;;;;5119683;27;20045;-65
2024/01/20 04:09:56;;;;;;;27.48;18.15;;;0.20;99.90;;;;;;5083882;28;20495;-65
2024/01/20 04:12:21;;;;;;;31.92;18.83;;;0.20;99.90;;;;;;5089615;28;20043;-66
2024/01/20 04:14:47;;;;;;;26.23;17.83;;;0.20;99.90;;;;;;5089409;28;20398;-65
2024/01/20 04:17:13;;;;;;;29.88;17.95;;;0.20;99.90;;;;;;5086129;28;20483;-65
2024/01/20 04:19:38;;;;;;;26.98;18.70;;;0.20;99.90;;;;;;5087062;28;20039;-65
2024/01/20 04:22:04;;;;;;;24.92;18.42;;;0.30;99.90;;;;;;5088337;28;20036;-65
2024/01/20 04:24:29;;;;;;;36.42;20.73;;;0.30;99.90;;;;;;5086507;28;20126;-65
2024/01/20 04:26:55;;;;;;;24.52;18.70;;;0.30;99.90;;;;;;5084987;28;20120;-65
2024/01/20 04:29:20;;;;;;;25.77;18.40;;;0.20;99.90;;;;;;5082500;28;20036;-65
2024/01/20 04:31:46;;;;;;;26.58;17.33;;;0.20;99.90;;;;;;5083860;28;20036;-65
2024/01/20 04:34:12;;;;;;;27.80;19.05;;;0.20;99.90;;;;;;5086428;28;20396;-65
2024/01/20 04:36:37;;;;;;;27.65;18.58;;;0.20;99.90;;;;;;5085891;28;20036;-65
2024/01/20 04:39:03;;;;;;;28.65;18.88;;;0.20;99.90;;;;;;5085908;28;20050;-65
2024/01/20 04:41:29;;;;;;;30.30;19.42;;;0.20;99.90;;;;;;5086041;28;20032;-65
2024/01/20 04:43:54;;;;;;;26.92;18.27;;;0.10;99.90;;;;;;5083552;28;20052;-65
2024/01/20 04:46:20;;;;;;;33.65;20.27;;;0.10;99.90;;;;;;5084080;28;20035;-65
2024/01/20 04:48:45;;;;;;;27.95;20.45;;;0.10;99.90;;;;;;5085109;28;20470;-65
2024/01/20 04:51:11;;;;;;;34.08;20.45;;;0.10;99.90;;;;;;5085509;28;20446;-65
2024/01/20 04:53:37;;;;;;;33.85;20.60;;;0.10;99.90;;;;;;5084957;28;20040;-65
2024/01/20 04:56:04;;;;;;;31.80;20.90;;;0.00;99.90;;;;;;5118809;27;20134;-65
2024/01/20 04:58:31;;;;;;;31.70;20.77;;;0.00;99.90;;;;;;5070867;28;20549;-65
2024/01/20 05:00:56;;;;;;;34.92;21.45;;;0.00;99.90;;;;;;5086700;28;20090;-65
2024/01/20 05:03:22;;;;;;;30.52;22.38;;;0.00;99.90;;;;;;5084028;28;20040;-65
2024/01/20 05:05:48;;;;;;;31.73;21.65;;;0.00;99.90;;;;;;5083331;28;20474;-65
2024/01/20 05:08:13;;;;;;;36.00;21.75;;;-0.10;99.90;;;;;;5085061;28;20345;-66
2024/01/20 05:10:39;;;;;;;30.92;20.20;;;0.00;99.90;;;;;;5087011;28;20153;-65
2024/01/20 05:13:04;;;;;;;38.28;23.00;;;-0.10;99.90;;;;;;5081537;28;20097;-65
2024/01/20 05:15:30;;;;;;;35.25;20.55;;;-0.10;99.90;;;;;;5082442;28;20055;-65
2024/01/20 05:17:56;;;;;;;36.78;23.13;;;-0.10;99.90;;;;;;5086915;28;20431;-65
2024/01/20 05:20:22;;;;;;;41.33;21.35;;;-0.20;99.90;;;;;;5086711;28;20119;-65
2024/01/20 05:22:48;;;;;;;35.72;23.27;;;-0.10;99.90;;;;;;5085196;28;20043;-65
2024/01/20 05:25:14;;;;;;;38.55;22.63;;;-0.20;99.90;;;;;;5085984;28;20084;-65
2024/01/20 05:27:40;;;;;;;40.20;23.15;;;-0.20;99.90;;;;;;5082196;28;20357;-65
2024/01/20 05:30:06;;;;;;;34.05;22.13;;;-0.20;99.90;;;;;;5073355;28;20040;-65
2024/01/20 05:32:32;;;;;;;38.65;23.35;;;-0.20;99.90;;;;;;5086016;28;20394;-65
2024/01/20 05:34:58;;;;;;;35.10;23.65;;;-0.20;99.90;;;;;;5116578;27;20040;-65
2024/01/20 05:37:23;;;;;;;37.60;23.63;;;-0.30;99.90;;;;;;5084663;28;20037;-65
2024/01/20 05:39:50;;;;;;;39.05;23.48;;;-0.20;99.90;;;;;;5089941;28;20044;-65
2024/01/20 05:42:16;;;;;;;40.03;23.23;;;-0.30;99.90;;;;;;5080656;28;20055;-65
2024/01/20 05:44:41;;;;;;;36.53;22.80;;;-0.30;99.90;;;;;;5081713;28;20494;-65
2024/01/20 05:47:07;;;;;;;37.17;22.15;;;-0.30;99.90;;;;;;5081765;28;20031;-65
2024/01/20 05:49:33;;;;;;;39.33;24.90;;;-0.30;99.90;;;;;;5080610;28;20498;-65
2024/01/20 05:51:59;;;;;;;35.30;23.40;;;-0.30;99.90;;;;;;5114584;27;20123;-65
2024/01/20 05:54:24;;;;;;;43.22;24.63;;;-0.30;99.90;;;;;;5084307;28;20040;-65
2024/01/20 05:56:50;;;;;;;36.47;22.27;;;-0.30;99.90;;;;;;5085774;28;20048;-65
2024/01/20 05:59:15;;;;;;;37.75;23.17;;;-0.30;99.90;;;;;;5082543;28;20040;-65
2024/01/20 06:01:41;;;;;;;37.17;23.20;;;-0.30;99.90;;;;;;5086500;28;20036;-65
2024/01/20 06:04:06;;;;;;;38.65;23.75;;;-0.30;99.90;;;;;;5082226;28;20576;-65
2024/01/20 06:06:32;;;;;;;38.28;22.08;;;-0.30;99.90;;;;;;5087049;28;20127;-66
2024/01/20 06:08:58;;;;;;;38.83;21.58;;;-0.30;99.90;;;;;;5088895;28;20538;-65
2024/01/20 06:11:24;;;;;;;41.58;24.55;;;-0.40;99.90;;;;;;5086000;28;20466;-65
2024/01/20 06:13:50;;;;;;;40.58;22.98;;;-0.40;99.90;;;;;;5087851;28;20137;-65
2024/01/20 06:16:17;;;;;;;41.65;24.17;;;-0.40;99.90;;;;;;5089823;28;20557;-65
2024/01/20 06:18:42;;;;;;;38.35;23.15;;;-0.40;99.90;;;;;;5087609;28;20131;-65
2024/01/20 06:21:08;;;;;;;44.80;25.35;;;-0.40;99.90;;;;;;5086911;28;20040;-65
2024/01/20 06:23:34;;;;;;;36.00;23.20;;;-0.40;99.90;;;;;;5083293;28;20040;-65
2024/01/20 06:26:00;;;;;;;41.97;24.50;;;-0.40;99.90;;;;;;5090466;28;20044;-65
2024/01/20 06:28:26;;;;;;;37.00;23.15;;;-0.50;99.90;;;;;;5084600;28;20128;-65
2024/01/20 06:30:52;;;;;;;40.65;24.08;;;-0.50;99.90;;;;;;5119940;27;20044;-66
2024/01/20 06:33:18;;;;;;;36.67;23.35;;;-0.40;99.90;;;;;;5091023;28;20393;-65
2024/01/20 06:35:44;;;;;;;44.22;25.05;;;-0.40;99.90;;;;;;5089174;28;20036;-65
2024/01/20 06:38:10;;;;;;;38.50;23.83;;;-0.40;99.90;;;;;;5088365;28;20472;-65
2024/01/20 06:40:35;;;;;;;38.00;23.85;;;-0.50;99.90;;;;;;5085593;28;20045;-65
2024/01/20 06:43:03;;;;;;;39.65;22.25;;;-0.40;99.90;;;;;;5081949;28;20379;-65
2024/01/20 06:45:33;;;;;;;42.60;23.85;;;-0.50;99.90;;;;;;5081333;28;20032;-65
2024/01/20 06:47:59;;;;;;;39.42;23.98;;;-0.50;99.90;;;;;;5081167;28;20068;-65
2024/01/20 06:50:24;;;;;;;40.30;22.70;;;-0.40;99.90;;;;;;5068654;28;20544;-65
2024/01/20 06:52:50;;;;;;;39.85;23.20;;;-0.40;99.90;;;;;;5076750;28;20040;-65
2024/01/20 06:55:16;;;;;;;34.05;23.27;;;-0.40;99.90;;;;;;5075978;28;20463;-65
2024/01/20 06:57:41;;;;;;;43.53;23.95;;;-0.40;99.90;;;;;;5077916;28;20793;-65
2024/01/20 07:00:08;;;;;;;38.95;22.92;;;-0.40;99.90;;;;;;5077577;28;20048;-65
2024/01/20 07:02:34;;;;;;;40.25;23.67;;;-0.40;99.90;;;;;;5073913;28;20304;-65
2024/01/20 07:05:00;;;;;;;43.25;23.73;;;-0.40;99.90;;;;;;5074174;28;20472;-65
2024/01/20 07:07:26;;;;;;;40.20;22.77;;;-0.40;99.90;;;;;;5072782;28;20070;-66
2024/01/20 07:09:52;;;;;;;35.53;22.67;;;-0.40;99.90;;;;;;5074800;28;20111;-66
2024/01/20 07:12:17;;;;;;;36.47;22.00;;;-0.50;99.90;;;;;;5072049;28;20620;-66
2024/01/20 07:14:43;;;;;;;37.35;22.58;;;-0.40;99.90;;;;;;5077513;28;20044;-66
2024/01/20 07:17:09;;;;;;;37.38;21.50;;;-0.40;99.90;;;;;;5072201;28;20508;-66
2024/01/20 07:19:35;;;;;;;34.92;20.95;;;-0.40;99.90;;;;;;5073838;28;20036;-66
2024/01/20 07:22:00;;;;;;;32.50;20.40;;;-0.40;99.90;;;;;;5073373;28;20527;-66
2024/01/20 07:24:29;;;;;;;33.67;20.65;;;-0.40;99.90;;;;;;5073479;28;20159;-66
2024/01/20 07:26:55;;;;;;;36.72;21.55;;;-0.40;99.90;;;;;;5074584;28;20039;-66
2024/01/20 07:29:20;;;;;;;31.38;20.90;;;-0.30;99.90;;;;;;5076733;28;20041;-66
2024/01/20 07:31:46;;;;;;;39.80;21.30;;;-0.30;99.90;;;;;;5075730;28;20040;-66
2024/01/20 07:34:11;;;;;;;37.92;22.30;;;-0.30;99.90;;;;;;5076623;28;20047;-65
2024/01/20 07:36:37;;;;;;;41.85;22.33;;;-0.30;99.90;;;;;;5113564;27;20393;-66
2024/01/20 07:39:04;;;;;;;34.22;19.88;;;-0.20;99.90;;;;;;5077189;28;20045;-65
2024/01/20 07:41:30;;;;;;;32.38;20.38;;;-0.20;99.90;;;;;;5075543;28;20071;-65
2024/01/20 07:43:56;;;;;;;31.98;20.83;;;-0.20;99.90;;;;;;5074425;28;20043;-66
2024/01/20 07:46:21;;;;;;;37.45;22.35;;;-0.20;99.90;;;;;;5076595;28;20028;-65
2024/01/20 07:48:47;;;;;;;35.45;21.15;;;-0.10;99.90;;;;;;5074593;28;20036;-66
2024/01/20 07:51:13;;;;;;;34.85;20.55;;;-0.10;99.90;;;;;;5077352;28;20048;-65
2024/01/20 07:53:38;;;;;;;39.25;22.45;;;-0.10;99.90;;;;;;5075811;28;20182;-65
2024/01/20 07:56:04;;;;;;;37.53;21.83;;;0.00;99.90;;;;;;5079830;28;20036;-65
2024/01/20 07:58:30;;;;;;;35.47;19.73;;;0.00;99.90;;;;;;5074794;28;20044;-65
2024/01/20 08:00:55;;;;;;;35.45;21.83;;;0.00;99.90;;;;;;5077563;28;20032;-65
2024/01/20 08:03:21;;;;;;;36.70;21.85;;;0.10;99.90;;;;;;5076564;28;20046;-65
2024/01/20 08:05:47;;;;;;;38.85;22.70;;;0.00;99.90;;;;;;5058137;28;20048;-65
2024/01/20 08:08:13;;;;;;;35.85;22.33;;;0.10;99.90;;;;;;5074719;28;20059;-64
2024/01/20 08:10:38;;;;;;;38.83;22.40;;;0.10;99.90;;;;;;5072922;28;20077;-65
2024/01/20 08:13:04;;;;;;;35.60;22.33;;;0.20;99.90;;;;;;5074696;28;20487;-65
2024/01/20 08:15:29;;;;;;;35.33;21.90;;;0.30;99.90;;;;;;5060679;28;20549;-65
2024/01/20 08:17:55;;;;;;;36.60;21.30;;;0.30;99.90;;;;;;5075730;28;20445;-65
2024/01/20 08:20:20;;;;;;;32.30;21.55;;;0.30;99.90;;;;;;5073157;28;20130;-65
2024/01/20 08:22:46;;;;;;;34.13;20.25;;;0.40;99.90;;;;;;5075671;28;20401;-65
2024/01/20 08:25:13;;;;;;;34.38;20.48;;;0.40;99.90;;;;;;5076226;28;20482;-65
2024/01/20 08:27:38;;;;;;;35.15;20.25;;;0.50;99.90;;;;;;5078059;28;20093;-65
2024/01/20 08:30:05;;;;;;;34.35;20.35;;;0.60;99.90;;;;;;5068478;28;20428;-68
2024/01/20 08:32:31;;;;;;;35.10;19.98;;;0.60;99.90;;;;;;5075858;28;20249;-66
2024/01/20 08:34:56;;;;;;;29.23;19.08;;;0.40;99.90;;;;;;5074829;28;20119;-66
2024/01/20 08:37:22;;;;;;;29.88;19.13;;;0.90;99.90;;;;;;5077191;28;20028;-66
2024/01/20 08:39:48;;;;;;;29.67;19.33;;;0.90;99.90;;;;;;5070117;28;20532;-66
2024/01/20 08:42:13;;;;;;;28.80;20.00;;;1.00;99.90;;;;;;5077324;28;20038;-66
2024/01/20 08:44:39;;;;;;;35.42;18.17;;;1.00;99.90;;;;;;5077385;28;20037;-66
2024/01/20 08:47:05;;;;;;;30.30;19.17;;;1.00;99.90;;;;;;5077178;28;20410;-66
2024/01/20 08:49:30;;;;;;;30.65;19.55;;;1.10;99.90;;;;;;5074806;28;20036;-66
2024/01/20 08:51:56;;;;;;;29.92;18.45;;;1.10;99.90;;;;;;5075391;28;20501;-66
2024/01/20 08:54:21;;;;;;;31.13;19.60;;;1.10;99.90;;;;;;5076645;28;20405;-66
2024/01/20 08:56:48;;;;;;;29.92;17.58;;;1.10;99.90;;;;;;5078341;28;20040;-66
2024/01/20 08:59:14;;;;;;;30.15;18.92;;;1.10;99.90;;;;;;5075388;28;20051;-66
2024/01/20 09:01:40;;;;;;;27.52;18.15;;;1.10;99.90;;;;;;5074590;28;20126;-66
2024/01/20 09:04:06;;;;;;;30.25;18.83;;;1.00;99.90;;;;;;5075373;28;20049;-66
2024/01/20 09:06:32;;;;;;;27.63;18.60;;;1.10;99.90;;;;;;5077605;28;20110;-66
2024/01/20 09:08:57;;;;;;;29.48;18.50;;;1.10;99.90;;;;;;5075961;28;20398;-66
2024/01/20 09:11:23;;;;;;;25.75;18.20;;;1.00;99.90;;;;;;5075110;28;20393;-66
2024/01/20 09:13:49;;;;;;;28.38;19.20;;;1.10;99.90;;;;;;5078070;28;20113;-66
2024/01/20 09:16:14;;;;;;;29.15;18.65;;;1.00;99.90;;;;;;5077523;28;20220;-66
2024/01/20 09:18:40;;;;;;;32.03;18.92;;;1.00;99.90;;;;;;5090426;28;20094;-66
2024/01/20 09:21:11;;;;;;;27.55;18.98;;;1.10;99.90;;;;;;5071584;28;20608;-66
2024/01/20 09:23:37;;;;;;;28.83;18.17;;;1.10;99.90;;;;;;5075926;28;20067;-66
2024/01/20 09:26:03;;;;;;;30.45;18.67;;;1.10;99.90;;;;;;5072709;28;20524;-66
2024/01/20 09:28:29;;;;;;;27.77;18.13;;;1.00;99.90;;;;;;5076040;28;20036;-66
2024/01/20 09:30:55;;;;;;;28.30;16.92;;;1.50;99.90;;;;;;5077526;28;20486;-66
2024/01/20 09:33:20;;;;;;;30.70;19.35;;;1.10;99.90;;;;;;5081484;28;20040;-66
2024/01/20 09:35:47;;;;;;;28.67;16.45;;;1.10;99.90;;;;;;5080827;28;20041;-66
2024/01/20 09:38:12;;;;;;;27.95;16.75;;;1.10;99.90;;;;;;5077260;28;20044;-66
2024/01/20 09:40:38;;;;;;;27.40;17.38;;;1.10;99.90;;;;;;5080971;28;20051;-66
2024/01/20 09:43:04;;;;;;;29.02;17.23;;;1.20;99.90;;;;;;5079498;28;20041;-66
2024/01/20 09:45:30;;;;;;;27.73;18.58;;;1.20;99.90;;;;;;5083104;28;20143;-66
2024/01/20 09:47:57;;;;;;;32.13;19.02;;;1.20;99.90;;;;;;5076916;28;20120;-66
2024/01/20 09:50:22;;;;;;;26.63;17.17;;;1.30;99.90;;;;;;5079638;28;20043;-66
2024/01/20 09:53:01;;;;;;;28.42;17.48;;;1.30;99.90;;;;;;5078634;28;20417;-66
2024/01/20 09:55:28;;;;;;;27.17;17.15;;;1.40;99.90;;;;;;5080234;28;20115;-66
2024/01/20 09:57:55;;;;;;;22.73;16.00;;;1.40;99.90;;;;;;5074471;28;20052;-66
2024/01/20 10:00:22;;;;;;;26.55;16.95;;;1.40;99.90;;;;;;5078154;28;20048;-66
2024/01/20 10:02:48;;;;;;;27.92;16.05;;;1.50;99.90;;;;;;5082146;28;20033;-66
2024/01/20 10:05:15;;;;;;;30.23;16.98;;;1.40;99.90;;;;;;5084740;28;20386;-66
2024/01/20 10:07:41;;;;;;;31.95;17.27;;;1.40;99.90;;;;;;5083468;28;20074;-66
2024/01/20 10:10:09;;;;;;;25.35;15.07;;;1.40;99.90;;;;;;5079903;28;20471;-66
2024/01/20 10:12:36;;;;;;;27.15;17.13;;;2.00;99.90;;;;;;5088308;28;20165;-66
2024/01/20 10:15:02;;;;;;;25.80;15.82;;;1.50;99.90;;;;;;5080651;28;20082;-66
2024/01/20 10:17:29;;;;;;;26.70;17.05;;;1.60;99.90;;;;;;5113038;27;20314;-66
2024/01/20 10:19:54;;;;;;;23.70;15.75;;;1.50;99.90;;;;;;5078759;28;20029;-66
2024/01/20 10:22:20;;;;;;;26.08;16.00;;;1.50;99.90;;;;;;5081209;28;20178;-66
2024/01/20 10:24:55;;;;;;;26.35;15.30;;;1.50;99.90;;;;;;5082071;28;20082;-66
2024/01/20 10:27:25;;;;;;;26.27;15.75;;;1.50;99.90;;;;;;5084449;28;20389;-66
2024/01/20 10:29:51;;;;;;;24.40;16.08;;;1.50;99.90;;;;;;5084020;28;20303;-66
2024/01/20 10:32:17;;;;;;;27.13;16.20;;;1.60;99.90;;;;;;5084168;28;20537;-66
2024/01/20 10:34:43;;;;;;;28.20;16.30;;;1.60;99.90;;;;;;5082072;28;20084;-66
2024/01/20 10:37:11;;;;;;;24.38;16.83;;;1.60;99.90;;;;;;5082227;28;20477;-66
2024/01/20 10:39:42;;;;;;;23.00;15.88;;;1.70;99.90;;;;;;5081934;28;20396;-66
2024/01/20 10:42:15;;;;;;;24.85;16.58;;;1.70;99.90;;;;;;5081099;28;20096;-66
2024/01/20 10:45:00;;;;;;;26.13;16.27;;;1.70;99.90;;;;;;5086582;28;20489;-66
2024/01/20 10:47:34;;;;;;;22.15;16.00;;;1.60;99.90;;;;;;5085921;28;20077;-66
2024/01/20 10:50:04;;;;;;;24.00;15.88;;;1.70;99.90;;;;;;5089109;28;20122;-66
2024/01/20 10:52:32;;;;;;;25.63;17.15;;;1.70;99.90;;;;;;5087049;28;20475;-66
2024/01/20 10:55:00;;;;;;;24.10;15.60;;;1.80;99.90;;;;;;5083682;28;20711;-66
2024/01/20 10:57:26;;;;;;;23.30;16.90;;;1.80;99.90;;;;;;5080981;28;20430;-66
2024/01/20 10:59:54;;;;;;;23.23;16.27;;;1.80;99.90;;;;;;5111210;27;20542;-65
2024/01/20 11:02:21;;;;;;;22.27;16.35;;;1.70;99.90;;;;;;5080365;28;20433;-66
2024/01/20 11:04:47;;;;;;;21.58;16.17;;;1.70;99.90;;;;;;5083346;28;20086;-66
2024/01/20 11:07:13;;;;;;;23.13;15.88;;;1.80;99.90;;;;;;5078109;28;20064;-66
2024/01/20 11:09:39;;;;;;;25.75;15.68;;;1.80;99.90;;;;;;5079786;28;20142;-66
2024/01/20 11:12:09;;;;;;;27.70;17.98;;;1.80;99.90;;;;;;5082424;28;20032;-66
2024/01/20 11:14:35;;;;;;;27.30;16.73;;;1.80;99.90;;;;;;5081035;28;20032;-66
2024/01/20 11:17:14;;;;;;;22.45;15.73;;;1.80;99.90;;;;;;5080511;28;20051;-66
2024/01/20 11:19:41;;;;;;;23.88;17.35;;;1.80;99.90;;;;;;5076385;28;20039;-66
2024/01/20 11:22:38;;;;;;;26.95;16.80;;;1.90;99.90;;;;;;5077290;28;20466;-65
2024/01/20 11:25:08;;;;;;;26.30;16.13;;;1.80;99.90;;;;;;5081640;28;20048;-66
2024/01/20 11:27:46;;;;;;;31.50;18.23;;;1.80;99.90;;;;;;5079668;28;20037;-66
2024/01/20 11:30:12;;;;;;;24.90;15.93;;;1.80;99.90;;;;;;5078099;28;20058;-66
2024/01/20 11:32:38;;;;;;;26.63;17.55;;;1.80;99.90;;;;;;5085804;28;20047;-67
2024/01/20 11:35:06;;;;;;;25.85;16.02;;;1.80;99.90;;;;;;5088724;28;20024;-67
2024/01/20 11:37:33;;;;;;;23.70;16.80;;;1.80;99.90;;;;;;5086862;28;20146;-67
2024/01/20 11:40:07;;;;;;;23.25;16.85;;;1.80;99.90;;;;;;5081645;28;20040;-67
2024/01/20 11:42:34;;;;;;;25.33;18.20;;;1.80;99.90;;;;;;5071798;28;20458;-67
2024/01/20 11:45:01;;;;;;;29.25;18.50;;;1.90;99.90;;;;;;5082460;28;20246;-67
2024/01/20 11:47:27;;;;;;;26.45;17.50;;;1.90;99.90;;;;;;5116731;27;20462;-66
2024/01/20 11:49:54;;;;;;;25.40;16.98;;;1.90;99.90;;;;;;5086434;28;20073;-66
2024/01/20 11:52:29;;;;;;;25.90;17.23;;;1.80;99.90;;;;;;5082314;28;20053;-66
2024/01/20 11:54:55;;;;;;;24.60;17.50;;;2.30;99.90;;;;;;5114223;27;20510;-66
2024/01/20 11:57:26;;;;;;;24.23;17.05;;;2.50;99.90;;;;;;5086633;28;20035;-66
2024/01/20 11:59:52;;;;;;;25.60;16.92;;;1.90;99.90;;;;;;5087372;28;20039;-67
2024/01/20 12:02:20;;;;;;;26.60;17.77;;;1.90;99.90;;;;;;5082024;28;20063;-67
2024/01/20 12:04:45;;;;;;;23.98;17.42;;;1.90;99.90;;;;;;5080079;28;20037;-66
2024/01/20 12:07:11;;;;;;;27.45;17.70;;;1.90;99.90;;;;;;5079348;28;20448;-66
2024/01/20 12:09:37;;;;;;;26.13;17.00;;;2.00;99.90;;;;;;5086676;28;20035;-66
2024/01/20 12:12:03;;;;;;;24.88;17.45;;;2.00;99.90;;;;;;5082786;28;20071;-66
2024/01/20 12:14:29;;;;;;;24.92;18.13;;;2.00;99.90;;;;;;5085780;28;20044;-66
2024/01/20 12:16:56;;;;;;;25.65;17.58;;;2.00;99.90;;;;;;5086911;28;20084;-66
2024/01/20 12:19:22;;;;;;;26.98;17.75;;;2.00;99.90;;;;;;5082322;28;20040;-66
2024/01/20 12:21:48;;;;;;;23.92;16.13;;;2.10;99.90;;;;;;5082631;28;20517;-66
2024/01/20 12:24:13;;;;;;;25.67;16.90;;;2.10;99.90;;;;;;5087030;28;20040;-66
2024/01/20 12:26:43;;;;;;;26.48;17.55;;;2.10;99.90;;;;;;5087773;28;20123;-66
2024/01/20 12:29:09;;;;;;;24.33;16.92;;;2.10;99.90;;;;;;5084465;28;20412;-66
2024/01/20 12:31:35;;;;;;;26.38;16.75;;;2.20;99.90;;;;;;5083639;28;20108;-66